Terminal Aerodrome Forecast
Issued by NWS Binghamton, NY

Home | Current Version | Previous Version | Text Only | Print | Product List | Glossary On
Versions: 1 2 3 4 5 6 7 8 9 10 11 12 13 14 15 16 17
000
FTUS41 KBGM 121900 AAA
TAFSYR
TAF AMD
KSYR 121907Z 1219/1318 25008KT P6SM SCT050 BKN100
     FM130000 VRB03KT P6SM FEW250
     FM131200 22010G22KT P6SM BKN100 PROB30 1314/1318 -TSRA
      OVC050CB=

USA.gov is the U.S. government's official web portal to all federal, state and local government web resources and services.